Sullivan, IL

1:23 PM CST on March 05, 2015 (GMT -0600)
Effingham | Change Station
CLOSE
Current Station
Airport
Location: Effingham,
Elevation: 587 ft
Nearby Weather Stations

Elev 587 ft 39.07 °N, 88.53 °W | Updated 8 minutes ago

Clear
Clear
19 °F
Feels Like 6 °F
N
14
Wind Variable Wind from West
Gusts 18 mph

Today
High -- | Low -- °F
--% Chance of Precip.
Yesterday
High -- | Low -- °F
Precip. -- in
6:21 AM 5:50 PM
Full, 100% visible
Pressure 30.54 in
Visibility 10.0 miles
Clouds Clear
Windchill 6 °F
Dew Point 2 °F
Humidity 47%
Rainfall 0.00 in
Snow Depth Not available.
UV 6 out of 12
Pollen .50 out of 12
Air Quality Not available.
Flu Activity Not available.
METAR K1H2 051915Z AUTO 28012G16KT 10SM CLR M07/M17 A3054 RMK AO2 T10721168

More Conditions Fewer Conditions

Pressure 30.54 in
Visibility 10.0 miles
Clouds Clear
Windchill 6 °F
Dew Point 2 °F
Humidity 47%
Rainfall 0.00 in
Snow Depth Not available.
UV 6 out of 12
Pollen .50 out of 12
Air Quality Not available.
Flu Activity Not available.
METAR K1H2 051915Z AUTO 28012G16KT 10SM CLR M07/M17 A3054 RMK AO2 T10721168

More Conditions Fewer Conditions

10-Day Weather Forecast

Almanac

Astronomy

Mar. 05, 2015 Rise Set
Actual Time
Civil Twilight
Nautical Twilight
Astronomical Twilight
Moon
Length of Visible Light
Length of Day
Tomorrow will be .
, % of the Moon is Illuminated

Today's Extremes

State Highs State Lows

Community

WunderPhotos

Upload Photos

1,802,915 photos uploaded!

WunderBlogs® & News

Nearby

Air Quality

  Air Quality AQ Index Pollutant
Not available.

Snow Depth

Station Depth Elevation

Earthquake Activity

City Distance Mag. Time & Date
Minimum magnitude displayed is 2.5.

Coastal Water Temperatures

Place Temperature

Nearby Weather Stations